Sweet Brier, California
Current Conditions -  °F | °C
As of 11:17 AM on Sunday 21 Dec 2014 (Local Time) from KMHS Reporting Station
Overcast Overcast  
Wind Chill: 47°   Ceiling: 400
Heat Index: 47°   Visibility: 10mi
Dew Point: 44°   Wind: 0mph
Humidity: 90%   Direction: NA
Pressure: 30.25"   Gusts: NA
Location:  41.1386°N, 122.317°W
Report Text: KMHS 211917Z AUTO 00000KT 10SM OVC004 08/07 A3025 RMK AO2 T00830067
Loading
Personal Weather Stations






























Interactive Weather Map New forecast layout! Learn more

10-Day Weather Forecast

Advertisements
Track Severe Weather on mobile